createdAt,value
2023-05-04T00:00:25.179Z,0.00
2023-05-04T00:01:25.164Z,0.00
2023-05-04T00:02:25.323Z,0.00
2023-05-04T00:03:25.318Z,0.00
2023-05-04T00:04:25.227Z,0.00
2023-05-04T00:05:25.152Z,0.00
2023-05-04T00:06:25.102Z,0.00
2023-05-04T00:07:25.088Z,0.00
2023-05-04T00:08:25.082Z,0.00
2023-05-04T00:09:25.120Z,0.00
2023-05-04T00:10:25.067Z,0.00
2023-05-04T00:11:25.064Z,0.00
2023-05-04T00:12:25.040Z,0.00
2023-05-04T00:13:25.021Z,0.00
2023-05-04T00:14:25.040Z,0.00
2023-05-04T00:15:25.012Z,0.00
2023-05-04T00:16:25.029Z,0.00
2023-05-04T00:17:25.012Z,0.00
2023-05-04T00:18:25.110Z,0.00
2023-05-04T00:19:24.964Z,0.00
2023-05-04T00:20:24.960Z,0.00
2023-05-04T00:21:24.938Z,0.00
2023-05-04T00:22:24.938Z,0.00
2023-05-04T00:23:24.912Z,0.00
2023-05-04T00:24:24.920Z,0.00
2023-05-04T00:25:24.890Z,0.00
2023-05-04T00:26:24.901Z,0.00
2023-05-04T00:27:24.889Z,0.00
2023-05-04T00:28:24.862Z,0.00
2023-05-04T00:29:24.872Z,0.00
2023-05-04T00:30:24.871Z,0.00
2023-05-04T00:31:24.880Z,0.00
2023-05-04T00:32:24.846Z,0.00
2023-05-04T00:33:24.818Z,0.00
2023-05-04T00:35:24.786Z,0.00
2023-05-04T00:36:24.784Z,0.00
2023-05-04T00:37:24.777Z,0.00
2023-05-04T00:38:24.756Z,0.00
2023-05-04T00:39:24.743Z,0.00
2023-05-04T00:40:24.749Z,0.00
2023-05-04T00:41:24.726Z,0.00
2023-05-04T00:42:31.707Z,0.00
2023-05-04T00:43:24.698Z,0.00
2023-05-04T00:44:24.684Z,0.00
2023-05-04T00:45:24.688Z,0.00
2023-05-04T00:46:24.705Z,0.00
2023-05-04T00:47:24.812Z,0.00
2023-05-04T00:48:24.659Z,0.00
2023-05-04T00:49:24.641Z,0.00
2023-05-04T00:50:24.719Z,0.00
2023-05-04T00:51:24.618Z,0.00
2023-05-04T00:52:24.612Z,0.00
2023-05-04T00:53:24.592Z,0.00
2023-05-04T00:54:24.608Z,0.00
2023-05-04T00:55:24.570Z,0.00
2023-05-04T00:56:24.573Z,0.00
2023-05-04T00:57:25.225Z,0.00
2023-05-04T00:58:24.555Z,0.00
2023-05-04T00:59:24.548Z,0.00
2023-05-04T01:00:24.521Z,0.00
2023-05-04T01:01:24.627Z,0.00
2023-05-04T01:02:24.620Z,0.00
2023-05-04T01:03:24.581Z,0.00
2023-05-04T01:04:24.468Z,0.00
2023-05-04T01:05:24.482Z,0.00
2023-05-04T01:06:24.481Z,0.00
2023-05-04T01:07:24.446Z,0.00
2023-05-04T01:08:24.437Z,0.00
2023-05-04T01:09:24.418Z,0.00
2023-05-04T01:10:24.412Z,0.00
2023-05-04T01:11:24.413Z,0.00
2023-05-04T01:12:24.391Z,0.00
2023-05-04T01:13:24.375Z,0.00
2023-05-04T01:14:24.389Z,0.00
2023-05-04T01:15:24.356Z,0.00
2023-05-04T01:16:24.376Z,0.00
2023-05-04T01:17:24.475Z,0.00
2023-05-04T01:18:24.321Z,0.00
2023-05-04T01:19:24.333Z,0.00
2023-05-04T01:20:24.330Z,0.00
2023-05-04T01:21:24.294Z,0.00
2023-05-04T01:22:24.431Z,0.00
2023-05-04T01:23:24.287Z,0.00
2023-05-04T01:24:24.265Z,0.00
2023-05-04T01:25:24.258Z,0.00
2023-05-04T01:26:24.255Z,0.00
2023-05-04T01:27:24.259Z,0.00
2023-05-04T01:28:24.223Z,0.00
2023-05-04T01:29:24.205Z,0.00
2023-05-04T01:30:24.210Z,0.00
2023-05-04T01:31:24.324Z,0.00
2023-05-04T01:32:24.231Z,0.00
2023-05-04T01:33:24.195Z,0.00
2023-05-04T01:34:24.165Z,0.00
2023-05-04T01:35:24.208Z,0.00
2023-05-04T01:36:24.128Z,0.00
2023-05-04T01:37:24.139Z,0.00
2023-05-04T01:38:24.182Z,0.00
2023-05-04T01:39:24.146Z,0.00
2023-05-04T01:40:24.144Z,0.00
2023-05-04T01:41:24.075Z,0.00
2023-05-04T01:42:24.073Z,0.00
2023-05-04T01:43:24.049Z,0.00
2023-05-04T01:44:24.070Z,0.00
2023-05-04T01:45:24.036Z,0.00
2023-05-04T01:46:24.063Z,0.00
2023-05-04T01:47:24.065Z,0.00
2023-05-04T01:48:24.009Z,0.00
2023-05-04T01:49:24.000Z,0.00
2023-05-04T01:50:23.969Z,0.00
2023-05-04T01:51:23.964Z,0.00
2023-05-04T01:52:23.962Z,0.00
2023-05-04T01:53:23.939Z,0.00
2023-05-04T01:54:23.958Z,0.00
2023-05-04T01:55:23.935Z,0.00
2023-05-04T01:56:23.902Z,0.00
2023-05-04T01:57:23.910Z,0.00
2023-05-04T01:58:23.879Z,0.00
2023-05-04T01:59:23.872Z,0.00
2023-05-04T02:00:23.864Z,0.00
2023-05-04T02:01:23.906Z,0.00
2023-05-04T02:02:23.855Z,0.00
2023-05-04T02:03:23.944Z,0.00
2023-05-04T02:04:23.840Z,0.00
2023-05-04T02:05:23.830Z,0.00
2023-05-04T02:06:23.809Z,0.00
2023-05-04T02:07:23.788Z,0.00
2023-05-04T02:08:23.771Z,0.00
2023-05-04T02:09:23.774Z,0.00
2023-05-04T02:10:23.780Z,0.00
2023-05-04T02:11:23.748Z,0.00
2023-05-04T02:12:23.732Z,0.00
2023-05-04T02:13:23.751Z,0.00
2023-05-04T02:14:23.731Z,0.00
2023-05-04T02:15:23.708Z,0.00
2023-05-04T02:16:23.756Z,0.00
2023-05-04T02:17:23.686Z,0.00
2023-05-04T02:18:23.677Z,0.00
2023-05-04T02:19:23.692Z,0.00
2023-05-04T02:20:23.660Z,0.00
2023-05-04T02:21:23.643Z,0.00
2023-05-04T02:22:23.622Z,0.00
2023-05-04T02:23:23.610Z,0.00
2023-05-04T02:24:23.619Z,0.00
2023-05-04T02:25:23.601Z,0.00
2023-05-04T02:26:24.298Z,0.00
2023-05-04T02:27:23.601Z,0.00
2023-05-04T02:28:23.590Z,0.00
2023-05-04T02:29:23.562Z,0.00
2023-05-04T02:30:23.584Z,0.00
2023-05-04T02:31:23.557Z,0.00
2023-05-04T02:32:23.580Z,0.00
2023-05-04T02:33:23.508Z,0.00
2023-05-04T02:34:23.503Z,0.00
2023-05-04T02:35:23.487Z,0.00
2023-05-04T02:36:23.476Z,0.00
2023-05-04T02:37:23.464Z,0.00
2023-05-04T02:38:23.458Z,0.00
2023-05-04T02:39:23.472Z,0.00
2023-05-04T02:40:23.454Z,0.00
2023-05-04T02:41:23.441Z,0.00
2023-05-04T02:42:23.421Z,0.00
2023-05-04T02:43:30.430Z,0.00
2023-05-04T02:44:23.399Z,0.00
2023-05-04T02:45:23.486Z,0.00
2023-05-04T02:46:23.607Z,0.00
2023-05-04T02:47:23.373Z,0.00
2023-05-04T02:48:23.341Z,0.00
2023-05-04T02:49:23.343Z,0.00
2023-05-04T02:50:23.315Z,0.00
2023-05-04T02:51:23.307Z,0.00
2023-05-04T02:52:23.304Z,0.00
2023-05-04T02:53:23.301Z,0.00
2023-05-04T02:54:23.274Z,0.00
2023-05-04T02:55:23.288Z,0.00
2023-05-04T02:56:23.255Z,0.00
2023-05-04T02:57:23.266Z,0.00
2023-05-04T02:58:23.256Z,0.00
2023-05-04T02:59:23.252Z,0.00
2023-05-04T03:00:23.225Z,0.00
2023-05-04T03:01:23.246Z,0.00
2023-05-04T03:02:23.242Z,0.00
2023-05-04T03:03:23.183Z,0.00
2023-05-04T03:04:23.217Z,0.00
2023-05-04T03:05:23.179Z,0.00
2023-05-04T03:06:23.146Z,0.00
2023-05-04T03:07:23.168Z,0.00
2023-05-04T03:08:23.136Z,0.00
2023-05-04T03:09:23.133Z,0.00
2023-05-04T03:10:23.110Z,0.00
2023-05-04T03:11:23.132Z,0.00
2023-05-04T03:12:23.096Z,0.00
2023-05-04T03:13:23.096Z,0.00
2023-05-04T03:14:23.098Z,0.00
2023-05-04T03:15:23.083Z,0.00
2023-05-04T03:16:23.104Z,0.00
2023-05-04T03:17:23.031Z,0.00
2023-05-04T03:18:23.028Z,0.00
2023-05-04T03:19:23.010Z,0.00
2023-05-04T03:20:23.012Z,0.00
2023-05-04T03:21:23.003Z,0.00
2023-05-04T03:22:22.997Z,0.00
2023-05-04T03:23:22.991Z,0.00
2023-05-04T03:24:22.959Z,0.00
2023-05-04T03:25:22.961Z,0.00
2023-05-04T03:26:22.932Z,0.00
2023-05-04T03:27:22.922Z,0.00
2023-05-04T03:28:22.914Z,0.00
2023-05-04T03:29:22.921Z,0.00
2023-05-04T03:30:23.105Z,0.00
2023-05-04T03:31:22.924Z,0.00
2023-05-04T03:32:22.874Z,0.00
2023-05-04T03:33:22.879Z,0.00
2023-05-04T03:34:22.881Z,0.00
2023-05-04T03:35:25.038Z,0.00
2023-05-04T03:36:22.829Z,0.00
2023-05-04T03:37:22.830Z,0.00
2023-05-04T03:38:22.800Z,0.00
2023-05-04T03:39:22.804Z,0.00
2023-05-04T03:40:22.817Z,0.00
2023-05-04T03:41:22.802Z,0.00
2023-05-04T03:42:22.788Z,0.00
2023-05-04T03:43:22.752Z,5.62
2023-05-04T03:44:22.740Z,5.62
2023-05-04T03:45:22.734Z,5.62
2023-05-04T03:46:22.779Z,5.62
2023-05-04T03:47:22.698Z,5.62
2023-05-04T03:48:22.694Z,5.62
2023-05-04T03:49:22.672Z,5.62
2023-05-04T03:50:22.681Z,5.62
2023-05-04T03:51:22.660Z,5.62
2023-05-04T03:52:22.652Z,5.62
2023-05-04T03:53:22.643Z,5.62
2023-05-04T03:54:22.619Z,11.25
2023-05-04T03:55:23.250Z,11.25
2023-05-04T03:56:22.593Z,11.25
2023-05-04T03:57:22.606Z,11.25
2023-05-04T03:58:22.588Z,11.25
2023-05-04T03:59:22.569Z,11.25
2023-05-04T04:00:22.562Z,16.88
2023-05-04T04:01:22.556Z,16.88
2023-05-04T04:02:22.577Z,16.88
2023-05-04T04:03:22.776Z,16.88
2023-05-04T04:04:22.529Z,16.88
2023-05-04T04:05:22.512Z,22.50
2023-05-04T04:06:22.495Z,22.50
2023-05-04T04:07:22.488Z,22.50
2023-05-04T04:08:22.472Z,22.50
2023-05-04T04:09:22.462Z,22.50
2023-05-04T04:10:22.476Z,28.12
2023-05-04T04:11:22.450Z,28.12
2023-05-04T04:12:22.432Z,28.12
2023-05-04T04:13:22.444Z,33.75
2023-05-04T04:14:22.395Z,33.75
2023-05-04T04:15:22.393Z,39.38
2023-05-04T04:16:22.436Z,39.38
2023-05-04T04:17:22.396Z,39.38
2023-05-04T04:18:22.803Z,45.00
2023-05-04T04:19:22.379Z,45.00
2023-05-04T04:20:22.349Z,45.00
2023-05-04T04:21:22.356Z,50.62
2023-05-04T04:22:22.373Z,50.62
2023-05-04T04:23:22.326Z,50.62
2023-05-04T04:24:22.316Z,50.62
2023-05-04T04:25:22.287Z,50.62
2023-05-04T04:26:22.287Z,56.25
2023-05-04T04:27:22.285Z,56.25
2023-05-04T04:28:22.244Z,61.88
2023-05-04T04:29:22.246Z,61.88
2023-05-04T04:30:22.259Z,67.50
2023-05-04T04:31:22.235Z,67.50
2023-05-04T04:32:22.219Z,73.12
2023-05-04T04:33:22.217Z,73.12
2023-05-04T04:34:22.195Z,73.12
2023-05-04T04:35:22.195Z,78.75
2023-05-04T04:36:22.162Z,78.75
2023-05-04T04:37:22.164Z,84.38
2023-05-04T04:38:22.150Z,84.38
2023-05-04T04:39:22.143Z,90.00
2023-05-04T04:40:22.114Z,90.00
2023-05-04T04:41:22.111Z,95.62
2023-05-04T04:42:22.105Z,95.62
2023-05-04T04:43:22.087Z,101.25
2023-05-04T04:44:29.589Z,101.25
2023-05-04T04:45:22.061Z,101.25
2023-05-04T04:46:22.077Z,101.25
2023-05-04T04:47:22.055Z,101.25
2023-05-04T04:48:22.039Z,106.88
2023-05-04T04:49:22.013Z,106.88
2023-05-04T04:50:22.100Z,112.50
2023-05-04T04:51:21.996Z,112.50
2023-05-04T04:52:21.996Z,118.12
2023-05-04T04:53:21.972Z,118.12
2023-05-04T04:54:21.984Z,123.75
2023-05-04T04:55:21.967Z,123.75
2023-05-04T04:56:21.949Z,129.38
2023-05-04T04:57:21.954Z,129.38
2023-05-04T04:58:22.055Z,129.38
2023-05-04T04:59:21.938Z,135.00
2023-05-04T05:00:21.958Z,135.00
2023-05-04T05:01:21.925Z,140.62
2023-05-04T05:02:21.877Z,146.25
2023-05-04T05:03:21.937Z,157.50
2023-05-04T05:04:21.895Z,174.38
2023-05-04T05:05:21.991Z,180.00
2023-05-04T05:06:21.859Z,191.25
2023-05-04T05:07:21.824Z,196.88
2023-05-04T05:08:21.823Z,202.50
2023-05-04T05:09:21.832Z,208.12
2023-05-04T05:10:21.794Z,208.12
2023-05-04T05:11:21.791Z,202.50
2023-05-04T05:12:21.786Z,196.88
2023-05-04T05:13:22.038Z,180.00
2023-05-04T05:14:21.779Z,180.00
2023-05-04T05:15:21.743Z,185.62
2023-05-04T05:16:21.791Z,191.25
2023-05-04T05:17:21.728Z,180.00
2023-05-04T05:18:21.730Z,180.00
2023-05-04T05:19:21.692Z,180.00
2023-05-04T05:20:21.695Z,180.00
2023-05-04T05:21:21.669Z,180.00
2023-05-04T05:22:22.140Z,185.62
2023-05-04T05:23:21.659Z,191.25
2023-05-04T05:24:21.665Z,191.25
2023-05-04T05:25:21.658Z,191.25
2023-05-04T05:26:21.630Z,191.25
2023-05-04T05:27:21.603Z,196.88
2023-05-04T05:28:21.611Z,202.50
2023-05-04T05:29:21.606Z,202.50
2023-05-04T05:30:21.589Z,202.50
2023-05-04T05:31:21.589Z,202.50
2023-05-04T05:32:21.550Z,202.50
2023-05-04T05:33:21.542Z,202.50
2023-05-04T05:34:21.531Z,196.88
2023-05-04T05:35:21.531Z,196.88
2023-05-04T05:36:21.536Z,196.88
2023-05-04T05:37:21.506Z,196.88
2023-05-04T05:38:21.542Z,196.88
2023-05-04T05:39:21.518Z,196.88
2023-05-04T05:40:21.470Z,196.88
2023-05-04T05:41:21.460Z,196.88
2023-05-04T05:42:21.471Z,202.50
2023-05-04T05:43:21.431Z,202.50
2023-05-04T05:44:21.423Z,202.50
2023-05-04T05:45:21.432Z,202.50
2023-05-04T05:46:21.495Z,202.50
2023-05-04T05:47:21.399Z,202.50
2023-05-04T05:48:21.380Z,202.50
2023-05-04T05:49:21.366Z,202.50
2023-05-04T05:50:21.359Z,208.12
2023-05-04T05:51:21.362Z,213.75
2023-05-04T05:52:21.354Z,213.75
2023-05-04T05:53:21.321Z,213.75
2023-05-04T05:54:21.333Z,213.75
2023-05-04T05:55:21.345Z,208.12
2023-05-04T05:56:21.305Z,208.12
2023-05-04T05:57:21.290Z,208.12
2023-05-04T05:58:21.268Z,208.12
2023-05-04T05:59:21.255Z,202.50
2023-05-04T06:00:21.296Z,202.50
2023-05-04T06:01:21.345Z,208.12
2023-05-04T06:02:21.295Z,208.12
2023-05-04T06:03:21.425Z,213.75
2023-05-04T06:04:21.284Z,219.38
2023-05-04T06:05:21.210Z,219.38
2023-05-04T06:06:21.199Z,225.00
2023-05-04T06:07:21.177Z,225.00
2023-05-04T06:08:21.171Z,225.00
2023-05-04T06:09:21.151Z,230.62
2023-05-04T06:10:21.166Z,230.62
2023-05-04T06:11:21.158Z,230.62
2023-05-04T06:12:21.133Z,236.25
2023-05-04T06:13:21.105Z,236.25
2023-05-04T06:14:21.114Z,236.25
2023-05-04T06:15:21.079Z,241.88
2023-05-04T06:16:21.137Z,241.88
2023-05-04T06:17:21.081Z,241.88
2023-05-04T06:18:21.109Z,247.50
2023-05-04T06:19:21.036Z,253.12
2023-05-04T06:20:21.041Z,258.75
2023-05-04T06:21:21.044Z,258.75
2023-05-04T06:22:21.068Z,264.38
2023-05-04T06:23:21.019Z,270.00
2023-05-04T06:24:21.025Z,275.62
2023-05-04T06:25:20.988Z,286.88
2023-05-04T06:26:20.990Z,298.12
2023-05-04T06:27:22.290Z,315.00
2023-05-04T06:28:20.962Z,331.88
2023-05-04T06:29:20.942Z,348.75
2023-05-04T06:30:20.919Z,348.75
2023-05-04T06:31:20.951Z,354.38
2023-05-04T06:32:20.923Z,365.62
2023-05-04T06:33:20.904Z,382.50
2023-05-04T06:34:20.880Z,399.38
2023-05-04T06:35:20.864Z,421.88
2023-05-04T06:36:20.857Z,444.38
2023-05-04T06:37:20.850Z,466.88
2023-05-04T06:38:20.862Z,495.00
2023-05-04T06:39:20.835Z,511.88
2023-05-04T06:40:20.832Z,517.50
2023-05-04T06:41:20.830Z,528.75
2023-05-04T06:42:20.838Z,523.12
2023-05-04T06:43:20.789Z,534.38
2023-05-04T06:44:20.778Z,551.25
2023-05-04T06:45:28.380Z,556.88
2023-05-04T06:46:20.761Z,568.12
2023-05-04T06:47:20.727Z,585.00
2023-05-04T06:48:20.739Z,590.62
2023-05-04T06:49:20.723Z,601.88
2023-05-04T06:50:20.751Z,613.12
2023-05-04T06:51:20.690Z,630.00
2023-05-04T06:52:20.679Z,624.38
2023-05-04T06:53:20.666Z,635.62
2023-05-04T06:54:20.656Z,635.62
2023-05-04T06:55:20.655Z,607.50
2023-05-04T06:56:20.637Z,585.00
2023-05-04T06:57:20.636Z,601.88
2023-05-04T06:58:20.745Z,573.75
2023-05-04T06:59:20.624Z,540.00
2023-05-04T07:00:20.596Z,511.88
2023-05-04T07:01:20.647Z,517.50
2023-05-04T07:02:20.575Z,540.00
2023-05-04T07:03:20.607Z,534.38
2023-05-04T07:04:20.578Z,579.38
2023-05-04T07:05:20.617Z,613.12
2023-05-04T07:06:20.523Z,630.00
2023-05-04T07:07:20.508Z,630.00
2023-05-04T07:08:20.525Z,669.38
2023-05-04T07:09:20.517Z,675.00
2023-05-04T07:10:20.520Z,691.88
2023-05-04T07:11:20.464Z,703.12
2023-05-04T07:12:20.511Z,697.50
2023-05-04T07:13:20.445Z,714.38
2023-05-04T07:14:20.720Z,725.62
2023-05-04T07:15:20.430Z,731.25
2023-05-04T07:16:20.932Z,731.25
2023-05-04T07:17:20.411Z,697.50
2023-05-04T07:18:20.461Z,703.12
2023-05-04T07:19:20.399Z,748.12
2023-05-04T07:20:20.370Z,736.88
2023-05-04T07:21:27.734Z,753.75
2023-05-04T07:22:21.350Z,748.12
2023-05-04T07:23:20.332Z,770.62
2023-05-04T07:24:20.332Z,776.25
2023-05-04T07:25:20.312Z,748.12
2023-05-04T07:26:20.314Z,759.38
2023-05-04T07:27:20.301Z,776.25
2023-05-04T07:28:20.343Z,793.12
2023-05-04T07:29:20.295Z,793.12
2023-05-04T07:30:20.286Z,748.12
2023-05-04T07:31:20.287Z,776.25
2023-05-04T07:32:20.440Z,787.50
2023-05-04T07:33:20.292Z,793.12
2023-05-04T07:34:23.226Z,781.88
2023-05-04T07:35:21.221Z,787.50
2023-05-04T07:36:20.940Z,793.12
2023-05-04T07:37:20.252Z,826.88
2023-05-04T07:38:20.197Z,810.00
2023-05-04T07:39:20.158Z,826.88
2023-05-04T07:40:20.146Z,838.12
2023-05-04T07:41:20.160Z,838.12
2023-05-04T07:42:20.128Z,832.50
2023-05-04T07:43:20.137Z,843.75
2023-05-04T07:44:20.103Z,843.75
2023-05-04T07:45:20.245Z,855.00
2023-05-04T07:46:20.141Z,860.62
2023-05-04T07:47:20.086Z,860.62
2023-05-04T07:48:20.123Z,855.00
2023-05-04T07:49:20.074Z,871.88
2023-05-04T07:50:20.049Z,860.62
2023-05-04T07:51:20.070Z,860.62
2023-05-04T07:52:20.164Z,838.12
2023-05-04T07:53:20.192Z,832.50
2023-05-04T07:54:22.816Z,821.25
2023-05-04T07:55:20.163Z,832.50
2023-05-04T07:56:20.165Z,826.88
2023-05-04T07:57:21.013Z,843.75
2023-05-04T07:58:20.189Z,849.38
2023-05-04T07:59:19.961Z,838.12
2023-05-04T08:00:20.197Z,843.75
2023-05-04T08:01:19.950Z,832.50
2023-05-04T08:02:20.114Z,855.00
2023-05-04T08:03:19.940Z,866.25
2023-05-04T08:04:19.904Z,860.62
2023-05-04T08:05:19.916Z,871.88
2023-05-04T08:06:19.902Z,877.50
2023-05-04T08:07:19.860Z,883.12
2023-05-04T08:08:21.334Z,888.75
2023-05-04T08:09:20.653Z,894.38
2023-05-04T08:10:19.842Z,883.12
2023-05-04T08:11:20.892Z,888.75
2023-05-04T08:12:19.806Z,900.00
2023-05-04T08:13:19.797Z,888.75
2023-05-04T08:14:20.143Z,888.75
2023-05-04T08:15:19.791Z,900.00
2023-05-04T08:16:19.771Z,911.25
2023-05-04T08:17:19.752Z,916.88
2023-05-04T08:18:19.759Z,933.75
2023-05-04T08:19:19.752Z,956.25
2023-05-04T08:20:21.643Z,967.50
2023-05-04T08:21:19.716Z,1018.12
2023-05-04T08:22:19.703Z,1012.50
2023-05-04T08:23:19.683Z,1012.50
2023-05-04T08:24:19.689Z,1012.50
2023-05-04T08:25:19.673Z,1023.75
2023-05-04T08:26:19.659Z,1006.88
2023-05-04T08:27:19.647Z,978.75
2023-05-04T08:28:19.647Z,978.75
2023-05-04T08:29:19.730Z,990.00
2023-05-04T08:30:19.660Z,973.12
2023-05-04T08:31:19.641Z,950.62
2023-05-04T08:32:19.607Z,950.62
2023-05-04T08:33:19.581Z,916.88
2023-05-04T08:34:19.604Z,894.38
2023-05-04T08:35:19.589Z,916.88
2023-05-04T08:36:19.573Z,905.62
2023-05-04T08:37:19.574Z,928.12
2023-05-04T08:38:19.525Z,928.12
2023-05-04T08:39:19.509Z,939.38
2023-05-04T08:40:19.509Z,922.50
2023-05-04T08:41:19.492Z,916.88
2023-05-04T08:42:19.512Z,922.50
2023-05-04T08:43:19.508Z,950.62
2023-05-04T08:44:19.643Z,928.12
2023-05-04T08:45:19.512Z,939.38
2023-05-04T08:46:27.029Z,933.75
2023-05-04T08:47:19.432Z,939.38
2023-05-04T08:48:19.422Z,995.62
2023-05-04T08:49:19.414Z,1001.25
2023-05-04T08:50:19.485Z,973.12
2023-05-04T08:51:19.419Z,990.00
2023-05-04T08:52:19.382Z,978.75
2023-05-04T08:53:19.369Z,956.25
2023-05-04T08:54:19.358Z,945.00
2023-05-04T08:55:19.413Z,956.25
2023-05-04T08:56:19.403Z,1012.50
2023-05-04T08:57:19.313Z,1006.88
2023-05-04T08:58:19.334Z,1029.38
2023-05-04T08:59:19.298Z,1012.50
2023-05-04T09:00:19.286Z,995.62
2023-05-04T09:01:19.423Z,995.62
2023-05-04T09:02:19.310Z,1006.88
2023-05-04T09:03:19.443Z,1029.38
2023-05-04T09:04:19.293Z,1029.38
2023-05-04T09:05:19.341Z,1035.00
2023-05-04T09:06:19.351Z,1006.88
2023-05-04T09:07:19.230Z,1012.50
2023-05-04T09:08:19.201Z,1006.88
2023-05-04T09:09:19.194Z,995.62
2023-05-04T09:10:19.168Z,1018.12
2023-05-04T09:11:19.169Z,1040.62
2023-05-04T09:12:19.198Z,1018.12
2023-05-04T09:13:19.194Z,1023.75
2023-05-04T09:14:19.126Z,1023.75
2023-05-04T09:15:19.149Z,1001.25
2023-05-04T09:16:19.127Z,1057.50
2023-05-04T09:17:19.115Z,1046.25
2023-05-04T09:18:19.110Z,1012.50
2023-05-04T09:19:19.986Z,1018.12
2023-05-04T09:20:19.070Z,978.75
2023-05-04T09:21:19.069Z,990.00
2023-05-04T09:22:19.057Z,1006.88
2023-05-04T09:23:19.110Z,1029.38
2023-05-04T09:24:19.012Z,1012.50
2023-05-04T09:25:19.013Z,1001.25
2023-05-04T09:26:18.989Z,1018.12
2023-05-04T09:27:18.995Z,1001.25
2023-05-04T09:28:18.987Z,1001.25
2023-05-04T09:29:18.960Z,1018.12
2023-05-04T09:30:18.976Z,1006.88
2023-05-04T09:31:19.015Z,984.38
2023-05-04T09:32:18.948Z,995.62
2023-05-04T09:33:19.000Z,978.75
2023-05-04T09:34:18.910Z,978.75
2023-05-04T09:35:32.062Z,990.00
2023-05-04T09:36:18.891Z,967.50
2023-05-04T09:37:18.891Z,961.88
2023-05-04T09:38:18.897Z,984.38
2023-05-04T09:39:18.854Z,1001.25
2023-05-04T09:40:18.891Z,984.38
2023-05-04T09:41:18.845Z,933.75
2023-05-04T09:42:18.857Z,928.12
2023-05-04T09:43:18.847Z,973.12
2023-05-04T09:44:18.819Z,990.00
2023-05-04T09:45:18.795Z,1001.25
2023-05-04T09:46:18.936Z,1035.00
2023-05-04T09:47:18.833Z,1023.75
2023-05-04T09:48:18.778Z,1006.88
2023-05-04T09:49:18.818Z,995.62
2023-05-04T09:50:20.987Z,984.38
2023-05-04T09:51:18.758Z,967.50
2023-05-04T09:52:18.722Z,978.75
2023-05-04T09:53:18.719Z,928.12
2023-05-04T09:54:18.836Z,950.62
2023-05-04T09:55:18.705Z,973.12
2023-05-04T09:56:18.713Z,978.75
2023-05-04T09:57:18.657Z,978.75
2023-05-04T09:58:18.643Z,984.38
2023-05-04T09:59:18.646Z,1012.50
2023-05-04T10:00:18.729Z,1051.88
2023-05-04T10:01:18.647Z,1012.50
2023-05-04T10:02:23.287Z,978.75
2023-05-04T10:03:18.634Z,978.75
2023-05-04T10:04:18.575Z,984.38
2023-05-04T10:05:18.886Z,984.38
2023-05-04T10:06:18.599Z,978.75
2023-05-04T10:07:18.562Z,984.38
2023-05-04T10:08:18.560Z,995.62
2023-05-04T10:09:18.558Z,1001.25
2023-05-04T10:10:18.572Z,1006.88
2023-05-04T10:11:18.532Z,984.38
2023-05-04T10:12:18.559Z,1035.00
2023-05-04T10:13:18.493Z,1006.88
2023-05-04T10:14:18.483Z,916.88
2023-05-04T10:15:18.494Z,945.00
2023-05-04T10:16:18.528Z,911.25
2023-05-04T10:17:18.445Z,928.12
2023-05-04T10:18:18.442Z,900.00
2023-05-04T10:19:18.432Z,905.62
2023-05-04T10:20:18.427Z,916.88
2023-05-04T10:21:18.400Z,928.12
2023-05-04T10:22:18.392Z,939.38
2023-05-04T10:23:18.426Z,950.62
2023-05-04T10:24:18.362Z,945.00
2023-05-04T10:25:18.397Z,950.62
2023-05-04T10:26:18.490Z,961.88
2023-05-04T10:27:18.341Z,950.62
2023-05-04T10:28:18.319Z,984.38
2023-05-04T10:29:19.689Z,956.25
2023-05-04T10:30:18.302Z,973.12
2023-05-04T10:31:18.395Z,973.12
2023-05-04T10:32:18.282Z,1006.88
2023-05-04T10:33:18.274Z,1023.75
2023-05-04T10:34:18.267Z,1023.75
2023-05-04T10:35:18.249Z,956.25
2023-05-04T10:36:18.256Z,900.00
2023-05-04T10:37:18.233Z,950.62
2023-05-04T10:38:18.926Z,984.38
2023-05-04T10:39:18.228Z,961.88
2023-05-04T10:40:18.198Z,900.00
2023-05-04T10:41:18.189Z,956.25
2023-05-04T10:42:18.207Z,984.38
2023-05-04T10:43:18.163Z,939.38
2023-05-04T10:44:18.187Z,945.00
2023-05-04T10:45:18.146Z,1006.88
2023-05-04T10:46:18.284Z,1006.88
2023-05-04T10:47:25.667Z,961.88
2023-05-04T10:48:18.151Z,956.25
2023-05-04T10:49:18.114Z,956.25
2023-05-04T10:50:18.084Z,967.50
2023-05-04T10:51:18.086Z,916.88
2023-05-04T10:52:18.531Z,984.38
2023-05-04T10:53:18.061Z,984.38
2023-05-04T10:54:18.035Z,950.62
2023-05-04T10:55:18.047Z,1040.62
2023-05-04T10:56:18.012Z,1012.50
2023-05-04T10:57:18.034Z,1035.00
2023-05-04T10:58:18.123Z,1023.75
2023-05-04T10:59:17.995Z,1012.50
2023-05-04T11:00:17.988Z,956.25
2023-05-04T11:01:18.083Z,961.88
2023-05-04T11:02:18.022Z,933.75
2023-05-04T11:03:18.037Z,933.75
2023-05-04T11:04:17.931Z,905.62
2023-05-04T11:05:17.938Z,849.38
2023-05-04T11:06:18.674Z,877.50
2023-05-04T11:07:17.905Z,905.62
2023-05-04T11:08:17.931Z,855.00
2023-05-04T11:09:17.960Z,871.88
2023-05-04T11:10:17.895Z,888.75
2023-05-04T11:11:17.892Z,894.38
2023-05-04T11:12:17.859Z,900.00
2023-05-04T11:13:17.892Z,888.75
2023-05-04T11:14:17.884Z,888.75
2023-05-04T11:15:17.833Z,877.50
2023-05-04T11:16:17.856Z,866.25
2023-05-04T11:18:19.043Z,871.88
2023-05-04T11:19:17.786Z,871.88
2023-05-04T11:20:17.759Z,883.12
2023-05-04T11:21:17.748Z,877.50
2023-05-04T11:22:17.740Z,911.25
2023-05-04T11:23:17.733Z,911.25
2023-05-04T11:24:17.729Z,888.75
2023-05-04T11:25:17.741Z,866.25
2023-05-04T11:26:17.692Z,860.62
2023-05-04T11:27:17.679Z,866.25
2023-05-04T11:28:17.670Z,871.88
2023-05-04T11:29:17.681Z,849.38
2023-05-04T11:30:17.670Z,838.12
2023-05-04T11:31:17.755Z,826.88
2023-05-04T11:32:17.620Z,810.00
2023-05-04T11:33:17.615Z,798.75
2023-05-04T11:34:17.605Z,804.38
2023-05-04T11:35:17.594Z,815.62
2023-05-04T11:36:17.603Z,849.38
2023-05-04T11:37:17.573Z,860.62
2023-05-04T11:38:17.670Z,877.50
2023-05-04T11:39:17.553Z,888.75
2023-05-04T11:40:17.545Z,911.25
2023-05-04T11:41:17.534Z,933.75
2023-05-04T11:42:17.530Z,967.50
2023-05-04T11:43:17.524Z,973.12
2023-05-04T11:44:17.491Z,945.00
2023-05-04T11:45:17.497Z,956.25
2023-05-04T11:46:17.558Z,939.38
2023-05-04T11:47:17.484Z,933.75
2023-05-04T11:48:18.766Z,922.50
2023-05-04T11:49:17.465Z,894.38
2023-05-04T11:50:17.431Z,877.50
2023-05-04T11:51:17.423Z,871.88
2023-05-04T11:52:17.434Z,900.00
2023-05-04T11:53:17.416Z,888.75
2023-05-04T11:54:17.387Z,883.12
2023-05-04T11:55:17.394Z,871.88
2023-05-04T11:56:17.363Z,855.00
2023-05-04T11:57:17.399Z,832.50
2023-05-04T11:58:17.346Z,838.12
2023-05-04T11:59:17.349Z,838.12
2023-05-04T12:00:17.985Z,810.00
2023-05-04T12:01:17.312Z,793.12
2023-05-04T12:02:17.389Z,815.62
2023-05-04T12:03:17.413Z,832.50
2023-05-04T12:04:17.370Z,821.25
2023-05-04T12:05:17.314Z,843.75
2023-05-04T12:06:17.268Z,832.50
2023-05-04T12:07:17.274Z,826.88
2023-05-04T12:08:17.252Z,810.00
2023-05-04T12:09:17.245Z,826.88
2023-05-04T12:10:17.212Z,821.25
2023-05-04T12:11:17.208Z,810.00
2023-05-04T12:12:17.195Z,826.88
2023-05-04T12:13:17.275Z,821.25
2023-05-04T12:14:17.248Z,810.00
2023-05-04T12:15:17.163Z,776.25
2023-05-04T12:16:17.201Z,765.00
2023-05-04T12:17:17.153Z,776.25
2023-05-04T12:18:17.161Z,798.75
2023-05-04T12:19:17.117Z,787.50
2023-05-04T12:20:17.102Z,787.50
2023-05-04T12:21:17.107Z,815.62
2023-05-04T12:22:17.106Z,798.75
2023-05-04T12:23:17.085Z,793.12
2023-05-04T12:24:17.082Z,798.75
2023-05-04T12:25:17.072Z,770.62
2023-05-04T12:26:19.560Z,798.75
2023-05-04T12:27:17.049Z,798.75
2023-05-04T12:28:17.029Z,770.62
2023-05-04T12:29:17.027Z,776.25
2023-05-04T12:30:16.997Z,776.25
2023-05-04T12:31:16.992Z,781.88
2023-05-04T12:32:17.010Z,770.62
2023-05-04T12:33:16.965Z,770.62
2023-05-04T12:34:17.047Z,753.75
2023-05-04T12:35:16.966Z,753.75
2023-05-04T12:36:16.927Z,731.25
2023-05-04T12:37:16.936Z,731.25
2023-05-04T12:38:16.906Z,714.38
2023-05-04T12:39:16.905Z,708.75
2023-05-04T12:40:27.819Z,720.00
2023-05-04T12:41:16.878Z,720.00
2023-05-04T12:42:16.876Z,720.00
2023-05-04T12:43:17.755Z,714.38
2023-05-04T12:44:16.852Z,686.25